Time;durP1;ratioP1;P1;durP2;ratioP2;P2;SDS_P1;SDS_P2;PMS_P1;PMS_P2;Temp;Humidity;BMP_temperature;BMP_pressure;BME280_temperature;BME280_humidity;BME280_pressure;Samples;Min_cycle;Max_cycle;Signal;HPM_P1;HPM_P2
2023/07/10 00:02:13;;;;;;;5.60;3.70;;;;;;;;;;108019;278;43451;-42
2023/07/10 00:04:47;;;;;;;5.80;3.50;;;;;;;;;;108085;274;44994;-42
2023/07/10 00:07:20;;;;;;;4.90;3.40;;;;;;;;;;108056;278;39748;-47
2023/07/10 00:09:55;;;;;;;5.70;3.50;;;;;;;;;;108077;277;43100;-44
2023/07/10 00:12:28;;;;;;;6.00;3.70;;;;;;;;;;108023;278;42101;-43
2023/07/10 00:15:05;;;;;;;5.40;3.60;;;;;;;;;;108060;274;45923;-42
2023/07/10 00:17:38;;;;;;;4.80;3.30;;;;;;;;;;108029;278;39939;-46
2023/07/10 00:20:21;;;;;;;6.50;3.80;;;;;;;;;;108009;274;44229;-45
2023/07/10 00:22:55;;;;;;;6.20;3.30;;;;;;;;;;108021;278;41847;-44
2023/07/10 00:25:29;;;;;;;5.50;3.60;;;;;;;;;;108039;270;38836;-41
2023/07/10 00:28:03;;;;;;;5.80;3.60;;;;;;;;;;108039;278;40440;-49
2023/07/10 00:30:37;;;;;;;5.20;3.50;;;;;;;;;;108039;278;42798;-44
2023/07/10 00:33:14;;;;;;;5.90;3.70;;;;;;;;;;107986;278;43256;-43
2023/07/10 00:35:51;;;;;;;5.70;3.70;;;;;;;;;;108057;278;38870;-42
2023/07/10 00:38:30;;;;;;;5.70;3.50;;;;;;;;;;108040;274;39651;-46
2023/07/10 00:41:09;;;;;;;6.80;3.70;;;;;;;;;;108050;278;42792;-48
2023/07/10 00:43:47;;;;;;;5.10;3.50;;;;;;;;;;108015;277;42113;-46
2023/07/10 00:46:32;;;;;;;6.00;3.90;;;;;;;;;;108079;278;40028;-44
2023/07/10 00:49:13;;;;;;;5.10;3.70;;;;;;;;;;108038;270;41009;-42
2023/07/10 00:51:58;;;;;;;5.50;3.70;;;;;;;;;;107994;278;42836;-42
2023/07/10 00:54:36;;;;;;;5.70;3.80;;;;;;;;;;107970;277;43353;-42
2023/07/10 00:57:23;;;;;;;6.50;3.70;;;;;;;;;;107990;278;38768;-41
2023/07/10 00:59:57;;;;;;;5.20;3.70;;;;;;;;;;108031;270;40819;-43
2023/07/10 01:02:31;;;;;;;5.10;3.30;;;;;;;;;;107991;278;45151;-42
2023/07/10 01:05:06;;;;;;;5.40;3.70;;;;;;;;;;108000;274;42094;-42
2023/07/10 01:07:46;;;;;;;5.10;3.50;;;;;;;;;;108028;278;38805;-41
2023/07/10 01:10:20;;;;;;;5.50;3.70;;;;;;;;;;108023;278;40869;-40
2023/07/10 01:12:55;;;;;;;5.90;3.70;;;;;;;;;;108028;270;42896;-44
2023/07/10 01:15:31;;;;;;;5.50;3.50;;;;;;;;;;107990;277;43064;-44
2023/07/10 01:18:10;;;;;;;5.60;3.50;;;;;;;;;;108018;277;39013;-43
2023/07/10 01:20:47;;;;;;;4.90;3.70;;;;;;;;;;108026;270;39649;-42
2023/07/10 01:23:22;;;;;;;5.90;3.90;;;;;;;;;;108039;274;42568;-43
2023/07/10 01:25:59;;;;;;;5.10;3.60;;;;;;;;;;107996;270;42145;-41
2023/07/10 01:28:36;;;;;;;5.00;3.70;;;;;;;;;;108001;270;38510;-42
2023/07/10 01:31:14;;;;;;;4.90;3.70;;;;;;;;;;108044;270;40837;-41
2023/07/10 01:33:54;;;;;;;6.80;4.00;;;;;;;;;;108035;270;42772;-42
2023/07/10 01:36:31;;;;;;;5.80;3.80;;;;;;;;;;107860;283;175439;-41
2023/07/10 01:39:19;;;;;;;5.70;3.50;;;;;;;;;;107992;277;38764;-44
2023/07/10 01:41:52;;;;;;;5.60;3.80;;;;;;;;;;107993;270;39954;-42
2023/07/10 01:44:30;;;;;;;5.70;3.80;;;;;;;;;;107950;274;43845;-42
2023/07/10 01:47:07;;;;;;;5.70;3.90;;;;;;;;;;108052;277;49598;-43
2023/07/10 01:49:47;;;;;;;6.40;3.80;;;;;;;;;;108071;277;38615;-41
2023/07/10 01:52:23;;;;;;;5.50;3.50;;;;;;;;;;108008;270;39778;-44
2023/07/10 01:54:56;;;;;;;5.40;3.60;;;;;;;;;;107857;277;175433;-42
2023/07/10 01:57:30;;;;;;;5.10;3.60;;;;;;;;;;107995;274;42209;-42
2023/07/10 02:00:05;;;;;;;5.70;3.70;;;;;;;;;;108062;277;38759;-42
2023/07/10 02:02:39;;;;;;;6.20;3.70;;;;;;;;;;108017;270;39688;-42
2023/07/10 02:05:13;;;;;;;6.10;3.80;;;;;;;;;;107956;278;42549;-43
2023/07/10 02:07:46;;;;;;;5.20;3.60;;;;;;;;;;108003;277;41901;-43
2023/07/10 02:10:20;;;;;;;5.10;3.90;;;;;;;;;;107969;270;38828;-44
2023/07/10 02:13:04;;;;;;;5.40;3.60;;;;;;;;;;107993;270;39831;-42
2023/07/10 02:15:38;;;;;;;5.80;3.90;;;;;;;;;;107972;277;43913;-42
2023/07/10 02:18:13;;;;;;;5.00;3.70;;;;;;;;;;108016;278;42074;-41
2023/07/10 02:20:50;;;;;;;6.10;3.90;;;;;;;;;;108012;270;38749;-41
2023/07/10 02:23:27;;;;;;;5.60;3.70;;;;;;;;;;108020;283;40799;-40
2023/07/10 02:26:02;;;;;;;5.30;3.90;;;;;;;;;;107994;278;42825;-45
2023/07/10 02:28:36;;;;;;;5.70;3.90;;;;;;;;;;107999;277;44168;-41
2023/07/10 02:31:10;;;;;;;5.60;3.80;;;;;;;;;;108001;274;38782;-41
2023/07/10 02:33:44;;;;;;;5.70;3.70;;;;;;;;;;108007;277;39725;-41
2023/07/10 02:36:20;;;;;;;6.00;3.80;;;;;;;;;;107947;274;42567;-43
2023/07/10 02:38:55;;;;;;;5.30;3.80;;;;;;;;;;108004;274;42216;-42
2023/07/10 02:41:33;;;;;;;6.50;3.70;;;;;;;;;;107994;277;38794;-44
2023/07/10 02:44:10;;;;;;;6.10;3.70;;;;;;;;;;107967;277;40293;-45
2023/07/10 02:46:47;;;;;;;5.80;3.80;;;;;;;;;;107979;277;42801;-48
2023/07/10 02:49:24;;;;;;;5.50;3.60;;;;;;;;;;107986;277;41847;-43
2023/07/10 02:52:00;;;;;;;5.70;3.30;;;;;;;;;;107976;270;38633;-41
2023/07/10 02:54:38;;;;;;;5.70;3.60;;;;;;;;;;107972;274;39428;-45
2023/07/10 02:57:14;;;;;;;5.70;3.90;;;;;;;;;;107933;278;42795;-44
2023/07/10 02:59:51;;;;;;;5.60;3.60;;;;;;;;;;108012;270;42109;-42
2023/07/10 03:02:29;;;;;;;5.50;3.70;;;;;;;;;;107986;278;38846;-42
2023/07/10 03:05:05;;;;;;;5.80;3.50;;;;;;;;;;107888;273;175413;-43
2023/07/10 03:07:39;;;;;;;5.60;3.60;;;;;;;;;;107956;278;42937;-45
2023/07/10 03:10:13;;;;;;;5.00;3.60;;;;;;;;;;107967;270;42283;-45
2023/07/10 03:12:52;;;;;;;5.20;3.60;;;;;;;;;;107995;274;38741;-44
2023/07/10 03:15:27;;;;;;;6.30;3.60;;;;;;;;;;107959;274;39607;-43
2023/07/10 03:18:03;;;;;;;5.40;3.40;;;;;;;;;;107894;274;42589;-41
2023/07/10 03:20:43;;;;;;;5.90;4.20;;;;;;;;;;107614;270;44682;-42
2023/07/10 03:23:18;;;;;;;5.30;3.60;;;;;;;;;;108009;278;39826;-46
2023/07/10 03:25:56;;;;;;;6.00;3.80;;;;;;;;;;107940;278;39853;-43
2023/07/10 03:28:39;;;;;;;5.30;3.80;;;;;;;;;;107941;278;42785;-42
2023/07/10 03:31:19;;;;;;;5.60;3.70;;;;;;;;;;107946;278;42200;-41
2023/07/10 03:33:59;;;;;;;5.40;3.80;;;;;;;;;;107963;274;38610;-42
2023/07/10 03:36:40;;;;;;;5.70;4.00;;;;;;;;;;107920;278;40688;-41
2023/07/10 03:39:14;;;;;;;6.30;3.70;;;;;;;;;;107931;278;50745;-42
2023/07/10 03:41:54;;;;;;;5.90;3.90;;;;;;;;;;107978;270;43215;-42
2023/07/10 03:44:36;;;;;;;5.30;4.10;;;;;;;;;;107877;278;175428;-41
2023/07/10 03:47:14;;;;;;;5.60;4.00;;;;;;;;;;107951;278;39480;-43
2023/07/10 03:49:50;;;;;;;5.90;4.10;;;;;;;;;;107956;274;48799;-41
2023/07/10 03:52:26;;;;;;;5.70;4.10;;;;;;;;;;107991;278;42414;-41
2023/07/10 03:55:01;;;;;;;5.90;4.20;;;;;;;;;;107977;277;38842;-41
2023/07/10 03:57:37;;;;;;;5.90;3.90;;;;;;;;;;107961;270;39761;-42
2023/07/10 04:00:13;;;;;;;5.30;4.00;;;;;;;;;;107971;278;43809;-42
2023/07/10 04:02:47;;;;;;;5.40;4.10;;;;;;;;;;107992;278;41849;-42
2023/07/10 04:05:21;;;;;;;5.70;3.90;;;;;;;;;;107981;278;38806;-42
2023/07/10 04:07:57;;;;;;;6.20;4.50;;;;;;;;;;107898;270;39703;-42
2023/07/10 04:10:31;;;;;;;6.70;4.40;;;;;;;;;;107985;270;42629;-43
2023/07/10 04:13:06;;;;;;;6.00;4.40;;;;;;;;;;107949;277;42020;-41
2023/07/10 04:15:45;;;;;;;6.30;4.20;;;;;;;;;;107975;274;40149;-41
2023/07/10 04:18:22;;;;;;;5.70;4.10;;;;;;;;;;107903;270;41676;-42
2023/07/10 04:20:57;;;;;;;6.40;4.10;;;;;;;;;;107992;274;42804;-43
2023/07/10 04:23:31;;;;;;;6.50;4.60;;;;;;;;;;107996;278;42070;-42
2023/07/10 04:26:06;;;;;;;7.10;4.50;;;;;;;;;;108001;277;38806;-41
2023/07/10 04:28:40;;;;;;;5.60;4.40;;;;;;;;;;107970;270;40623;-43
2023/07/10 04:31:14;;;;;;;6.30;4.40;;;;;;;;;;107859;278;175401;-43
2023/07/10 04:33:49;;;;;;;5.60;4.40;;;;;;;;;;107909;277;175109;-44
2023/07/10 04:36:25;;;;;;;6.80;4.70;;;;;;;;;;108016;277;39820;-48
2023/07/10 04:39:04;;;;;;;5.40;4.30;;;;;;;;;;107969;277;39902;-43
2023/07/10 04:41:39;;;;;;;6.30;4.20;;;;;;;;;;107969;270;42575;-44
2023/07/10 04:44:13;;;;;;;7.00;4.40;;;;;;;;;;107992;274;42331;-41
2023/07/10 04:46:49;;;;;;;10.90;5.00;;;;;;;;;;107964;274;38860;-42
2023/07/10 04:49:25;;;;;;;7.00;4.40;;;;;;;;;;107933;277;39780;-42
2023/07/10 04:52:01;;;;;;;6.90;4.40;;;;;;;;;;107967;273;42827;-46
2023/07/10 04:54:38;;;;;;;6.00;4.50;;;;;;;;;;107958;277;42121;-43
2023/07/10 04:57:14;;;;;;;6.40;4.20;;;;;;;;;;107971;270;39941;-43
2023/07/10 04:59:54;;;;;;;7.70;4.20;;;;;;;;;;107931;270;40896;-41
2023/07/10 05:02:33;;;;;;;6.30;4.40;;;;;;;;;;107965;274;42773;-43
2023/07/10 05:05:10;;;;;;;7.10;4.50;;;;;;;;;;107977;278;42141;-41
2023/07/10 05:07:44;;;;;;;6.90;4.40;;;;;;;;;;107985;277;38822;-44
2023/07/10 05:10:18;;;;;;;6.40;4.30;;;;;;;;;;107940;270;39651;-40
2023/07/10 05:12:55;;;;;;;6.40;4.10;;;;;;;;;;107989;277;44055;-45
2023/07/10 05:15:31;;;;;;;7.00;4.20;;;;;;;;;;107991;270;42158;-42
2023/07/10 05:18:10;;;;;;;6.60;4.00;;;;;;;;;;107953;274;38780;-42
2023/07/10 05:20:46;;;;;;;6.10;4.10;;;;;;;;;;107927;277;40892;-42
2023/07/10 05:23:23;;;;;;;6.80;4.30;;;;;;;;;;107963;274;43976;-45
2023/07/10 05:26:09;;;;;;;7.20;4.50;;;;;;;;;;107995;277;42119;-42
2023/07/10 05:28:46;;;;;;;7.10;4.20;;;;;;;;;;107992;277;38522;-47
2023/07/10 05:31:21;;;;;;;6.50;4.50;;;;;;;;;;108000;270;39782;-43
2023/07/10 05:33:56;;;;;;;6.40;4.20;;;;;;;;;;108031;274;42718;-47
2023/07/10 05:36:31;;;;;;;7.20;4.50;;;;;;;;;;107951;274;42123;-44
2023/07/10 05:39:05;;;;;;;7.20;4.60;;;;;;;;;;107987;270;39205;-42
2023/07/10 05:41:40;;;;;;;5.90;4.30;;;;;;;;;;107990;270;40803;-44
2023/07/10 05:44:13;;;;;;;6.50;4.20;;;;;;;;;;108048;277;43082;-49
2023/07/10 05:46:46;;;;;;;7.30;4.10;;;;;;;;;;108075;270;43380;-43
2023/07/10 05:49:20;;;;;;;7.20;4.50;;;;;;;;;;108062;270;38851;-42
2023/07/10 05:51:54;;;;;;;6.20;4.10;;;;;;;;;;108022;277;39477;-46
2023/07/10 05:54:27;;;;;;;6.50;4.00;;;;;;;;;;108041;277;42904;-43
2023/07/10 05:57:00;;;;;;;6.40;3.90;;;;;;;;;;108054;277;42166;-43
2023/07/10 05:59:34;;;;;;;5.60;4.00;;;;;;;;;;108089;277;38773;-42
2023/07/10 06:02:08;;;;;;;6.80;4.10;;;;;;;;;;108069;278;41187;-46
2023/07/10 06:04:42;;;;;;;5.20;3.60;;;;;;;;;;108065;270;42814;-42
2023/07/10 06:07:15;;;;;;;5.70;3.80;;;;;;;;;;108024;277;42213;-42
2023/07/10 06:09:48;;;;;;;5.30;3.50;;;;;;;;;;108069;274;38762;-46
2023/07/10 06:12:21;;;;;;;6.20;3.70;;;;;;;;;;108035;270;39860;-42
2023/07/10 06:14:56;;;;;;;5.70;3.60;;;;;;;;;;108070;277;44027;-46
2023/07/10 06:17:29;;;;;;;5.30;3.50;;;;;;;;;;108106;270;42572;-44
2023/07/10 06:20:03;;;;;;;6.80;3.50;;;;;;;;;;108071;277;38937;-42
2023/07/10 06:22:37;;;;;;;5.60;3.40;;;;;;;;;;108138;277;45169;-42
2023/07/10 06:25:11;;;;;;;7.20;3.50;;;;;;;;;;108032;277;42868;-42
2023/07/10 06:27:44;;;;;;;5.60;3.50;;;;;;;;;;108072;277;41867;-46
2023/07/10 06:30:18;;;;;;;5.10;3.30;;;;;;;;;;108019;274;38810;-43
2023/07/10 06:32:52;;;;;;;5.00;3.30;;;;;;;;;;107956;270;44532;-43
2023/07/10 06:35:26;;;;;;;5.50;3.20;;;;;;;;;;107985;270;42796;-46
2023/07/10 06:37:59;;;;;;;5.30;3.20;;;;;;;;;;108019;277;43135;-45
2023/07/10 06:40:33;;;;;;;5.00;3.00;;;;;;;;;;108017;274;39725;-44
2023/07/10 06:43:08;;;;;;;5.50;3.50;;;;;;;;;;107979;277;47851;-45
2023/07/10 06:45:43;;;;;;;6.30;3.30;;;;;;;;;;107953;270;42841;-43
2023/07/10 06:48:17;;;;;;;5.90;3.20;;;;;;;;;;108027;274;42479;-44
2023/07/10 06:50:53;;;;;;;5.80;3.30;;;;;;;;;;108035;277;39078;-43
2023/07/10 06:53:27;;;;;;;5.10;3.30;;;;;;;;;;108083;270;45300;-44
2023/07/10 06:56:04;;;;;;;5.90;3.40;;;;;;;;;;108007;275;43096;-42
2023/07/10 06:58:40;;;;;;;6.00;3.20;;;;;;;;;;108028;270;41889;-44
2023/07/10 07:01:16;;;;;;;6.60;3.20;;;;;;;;;;107942;277;38764;-41
2023/07/10 07:03:53;;;;;;;5.70;3.20;;;;;;;;;;107945;274;39731;-42
2023/07/10 07:06:32;;;;;;;4.90;2.80;;;;;;;;;;107967;278;42819;-42
2023/07/10 07:09:09;;;;;;;5.00;3.00;;;;;;;;;;107966;270;42284;-40
2023/07/10 07:11:45;;;;;;;5.60;3.10;;;;;;;;;;107926;278;38747;-43
2023/07/10 07:14:19;;;;;;;5.50;3.40;;;;;;;;;;107937;278;41862;-42
2023/07/10 07:16:55;;;;;;;4.60;3.00;;;;;;;;;;107953;270;42949;-42
2023/07/10 07:19:28;;;;;;;5.10;3.50;;;;;;;;;;107990;278;43190;-42
2023/07/10 07:22:06;;;;;;;4.80;3.30;;;;;;;;;;107887;278;39963;-44
2023/07/10 07:24:40;;;;;;;5.00;3.30;;;;;;;;;;107975;274;39801;-40
2023/07/10 07:27:15;;;;;;;5.30;3.40;;;;;;;;;;107973;270;43038;-42
2023/07/10 07:29:53;;;;;;;5.50;3.80;;;;;;;;;;107986;274;42139;-42
2023/07/10 07:32:30;;;;;;;5.70;3.40;;;;;;;;;;107982;274;38738;-41
2023/07/10 07:35:07;;;;;;;5.40;3.70;;;;;;;;;;107968;274;39703;-42
2023/07/10 07:37:43;;;;;;;5.70;3.50;;;;;;;;;;107985;278;42616;-42
2023/07/10 07:40:19;;;;;;;6.20;4.10;;;;;;;;;;107963;278;41996;-41
2023/07/10 07:42:53;;;;;;;5.60;3.80;;;;;;;;;;107957;270;38777;-43
2023/07/10 07:45:26;;;;;;;5.90;3.70;;;;;;;;;;107999;277;39822;-45
2023/07/10 07:48:00;;;;;;;5.20;3.50;;;;;;;;;;108051;270;42872;-43
2023/07/10 07:50:34;;;;;;;5.50;3.70;;;;;;;;;;107996;273;41863;-42
2023/07/10 07:53:08;;;;;;;5.10;3.40;;;;;;;;;;107940;278;38734;-41
2023/07/10 07:55:42;;;;;;;4.90;3.20;;;;;;;;;;107995;278;39701;-40
2023/07/10 07:58:16;;;;;;;5.00;3.20;;;;;;;;;;108071;277;43135;-45
2023/07/10 08:00:52;;;;;;;4.10;2.90;;;;;;;;;;107962;277;42125;-41
2023/07/10 08:03:28;;;;;;;4.50;3.00;;;;;;;;;;107970;276;38758;-39
2023/07/10 08:06:04;;;;;;;4.50;3.20;;;;;;;;;;108054;273;40207;-42
2023/07/10 08:08:42;;;;;;;5.00;2.90;;;;;;;;;;108023;277;42776;-37
2023/07/10 08:11:20;;;;;;;4.80;3.00;;;;;;;;;;107990;278;42191;-41
2023/07/10 08:13:54;;;;;;;5.00;3.10;;;;;;;;;;107979;277;38785;-42
2023/07/10 08:16:29;;;;;;;4.80;3.00;;;;;;;;;;108051;277;39405;-41
2023/07/10 08:19:05;;;;;;;4.80;2.90;;;;;;;;;;107990;269;42962;-41
2023/07/10 08:21:42;;;;;;;4.20;2.70;;;;;;;;;;108004;274;42050;-39
2023/07/10 08:24:16;;;;;;;5.70;2.80;;;;;;;;;;107843;278;175400;-38
2023/07/10 08:26:51;;;;;;;4.90;2.80;;;;;;;;;;108055;273;40796;-45
2023/07/10 08:29:31;;;;;;;6.30;2.90;;;;;;;;;;108089;274;42840;-43
2023/07/10 08:32:06;;;;;;;4.30;2.70;;;;;;;;;;108046;276;43250;-40
2023/07/10 08:34:39;;;;;;;4.50;2.90;;;;;;;;;;108027;277;38773;-39
2023/07/10 08:37:14;;;;;;;6.90;3.00;;;;;;;;;;108037;273;41190;-44
2023/07/10 08:39:49;;;;;;;5.40;2.60;;;;;;;;;;108056;270;42827;-43
2023/07/10 08:42:25;;;;;;;5.40;2.80;;;;;;;;;;108039;273;42129;-40
2023/07/10 08:45:02;;;;;;;4.90;2.70;;;;;;;;;;107999;274;40054;-51
2023/07/10 08:47:42;;;;;;;4.70;2.60;;;;;;;;;;108000;278;39851;-46
2023/07/10 08:50:22;;;;;;;4.50;2.70;;;;;;;;;;107979;277;43047;-48
2023/07/10 08:53:03;;;;;;;4.90;2.60;;;;;;;;;;108018;269;42113;-39
2023/07/10 08:55:50;;;;;;;5.50;2.40;;;;;;;;;;107917;276;38539;-41
2023/07/10 08:58:27;;;;;;;4.40;2.40;;;;;;;;;;108013;270;39664;-42
2023/07/10 09:01:03;;;;;;;3.90;2.40;;;;;;;;;;107974;276;44137;-46
2023/07/10 09:03:47;;;;;;;4.20;2.40;;;;;;;;;;108011;276;42139;-44
2023/07/10 09:06:26;;;;;;;4.50;2.50;;;;;;;;;;107913;277;44387;-41
2023/07/10 09:09:00;;;;;;;4.00;2.10;;;;;;;;;;108038;274;39650;-41
2023/07/10 09:11:35;;;;;;;4.00;2.30;;;;;;;;;;108045;276;44198;-39
2023/07/10 09:14:25;;;;;;;4.20;2.40;;;;;;;;;;108062;277;42106;-40
2023/07/10 09:17:02;;;;;;;3.90;2.30;;;;;;;;;;108036;277;44982;-39
2023/07/10 09:19:38;;;;;;;4.60;2.20;;;;;;;;;;108005;270;39628;-41
2023/07/10 09:22:21;;;;;;;3.70;2.10;;;;;;;;;;107927;269;42925;-40
2023/07/10 09:25:02;;;;;;;4.20;2.40;;;;;;;;;;107955;270;43231;-42
2023/07/10 09:27:36;;;;;;;4.40;2.20;;;;;;;;;;108067;274;38744;-42
2023/07/10 09:30:26;;;;;;;4.40;2.30;;;;;;;;;;107965;276;39647;-45
2023/07/10 09:33:08;;;;;;;3.70;2.10;;;;;;;;;;108017;276;42948;-41
2023/07/10 09:35:45;;;;;;;3.90;2.20;;;;;;;;;;107996;277;41843;-42
2023/07/10 09:38:22;;;;;;;3.70;2.20;;;;;;;;;;108127;270;38776;-46
2023/07/10 09:40:58;;;;;;;4.00;2.20;;;;;;;;;;108036;270;40842;-43
2023/07/10 09:43:33;;;;;;;3.80;2.00;;;;;;;;;;108046;274;43256;-40
2023/07/10 09:46:13;;;;;;;4.60;2.00;;;;;;;;;;107953;274;42191;-41
2023/07/10 09:48:55;;;;;;;4.10;2.30;;;;;;;;;;108033;274;39792;-40
2023/07/10 09:51:36;;;;;;;4.70;2.40;;;;;;;;;;108017;276;39480;-40
2023/07/10 09:54:16;;;;;;;3.60;2.00;;;;;;;;;;107950;277;42956;-45
2023/07/10 09:56:51;;;;;;;3.70;2.10;;;;;;;;;;107905;276;175346;-41
2023/07/10 09:59:29;;;;;;;4.70;2.00;;;;;;;;;;108062;276;39062;-39
2023/07/10 10:02:18;;;;;;;4.20;2.00;;;;;;;;;;108054;276;39831;-45
2023/07/10 10:05:14;;;;;;;3.80;2.10;;;;;;;;;;108056;272;44266;-44
2023/07/10 10:07:49;;;;;;;4.00;2.20;;;;;;;;;;107912;278;47953;-40
2023/07/10 10:10:29;;;;;;;4.20;1.90;;;;;;;;;;108036;271;38875;-39
2023/07/10 10:13:18;;;;;;;3.80;1.70;;;;;;;;;;108002;278;39709;-38
2023/07/10 10:16:02;;;;;;;3.50;1.60;;;;;;;;;;107981;278;43150;-36
2023/07/10 10:18:51;;;;;;;3.90;1.80;;;;;;;;;;107997;278;42102;-38
2023/07/10 10:21:33;;;;;;;3.50;1.80;;;;;;;;;;108006;279;38778;-36
2023/07/10 10:24:12;;;;;;;4.10;1.90;;;;;;;;;;108036;278;39656;-41
2023/07/10 10:27:00;;;;;;;3.90;1.90;;;;;;;;;;107967;279;42894;-38
2023/07/10 10:30:05;;;;;;;4.70;1.80;;;;;;;;;;108001;279;42255;-41
2023/07/10 10:32:49;;;;;;;3.60;1.60;;;;;;;;;;108034;271;40825;-40
2023/07/10 10:35:37;;;;;;;3.40;1.60;;;;;;;;;;107979;278;40899;-38
2023/07/10 10:38:35;;;;;;;3.50;1.80;;;;;;;;;;107931;271;43864;-39
2023/07/10 10:41:29;;;;;;;3.60;1.80;;;;;;;;;;107988;278;42386;-39
2023/07/10 10:44:10;;;;;;;4.40;1.90;;;;;;;;;;108014;271;38567;-40
2023/07/10 10:47:04;;;;;;;3.70;1.80;;;;;;;;;;107968;275;39824;-38
2023/07/10 10:49:56;;;;;;;4.40;1.80;;;;;;;;;;108007;278;42879;-38
2023/07/10 10:52:39;;;;;;;3.70;1.60;;;;;;;;;;107896;278;175433;-38
2023/07/10 10:55:34;;;;;;;4.10;1.80;;;;;;;;;;108000;278;40099;-39
2023/07/10 10:58:39;;;;;;;3.60;1.80;;;;;;;;;;107863;279;175300;-39
2023/07/10 11:01:29;;;;;;;4.20;1.80;;;;;;;;;;107363;279;912691;-40
2023/07/10 11:04:17;;;;;;;3.60;1.80;;;;;;;;;;108016;278;42184;-38
2023/07/10 11:06:55;;;;;;;3.80;1.60;;;;;;;;;;108032;276;38723;-38
2023/07/10 11:09:36;;;;;;;3.40;1.50;;;;;;;;;;108130;277;39663;-40
2023/07/10 11:12:19;;;;;;;3.20;1.60;;;;;;;;;;108046;278;43067;-38
2023/07/10 11:14:58;;;;;;;3.20;1.60;;;;;;;;;;108054;276;42193;-39
2023/07/10 11:17:32;;;;;;;3.20;1.50;;;;;;;;;;108020;277;38879;-38
2023/07/10 11:20:11;;;;;;;3.60;1.60;;;;;;;;;;107596;273;547001;-38
2023/07/10 11:22:53;;;;;;;3.00;1.50;;;;;;;;;;108043;269;43222;-38
2023/07/10 11:25:38;;;;;;;3.00;1.60;;;;;;;;;;108048;276;42145;-39
2023/07/10 11:28:31;;;;;;;3.30;1.50;;;;;;;;;;108025;269;38772;-37
2023/07/10 11:31:25;;;;;;;3.20;1.40;;;;;;;;;;108067;277;39930;-44
2023/07/10 11:34:49;;;;;;;5.40;1.80;;;;;;;;;;108054;269;44062;-37
2023/07/10 11:38:06;;;;;;;7.30;3.70;;;;;;;;;;108036;273;42081;-37
2023/07/10 11:40:52;;;;;;;7.10;3.60;;;;;;;;;;108075;276;38837;-39
2023/07/10 11:43:55;;;;;;;6.70;3.20;;;;;;;;;;108033;273;39721;-40
2023/07/10 11:46:33;;;;;;;6.10;2.80;;;;;;;;;;108072;276;44356;-40
2023/07/10 11:49:20;;;;;;;6.60;2.90;;;;;;;;;;108113;276;43157;-37
2023/07/10 11:52:27;;;;;;;5.80;2.80;;;;;;;;;;108074;274;38778;-38
2023/07/10 11:55:26;;;;;;;6.10;2.70;;;;;;;;;;108041;269;40776;-38
2023/07/10 11:58:27;;;;;;;5.50;2.30;;;;;;;;;;108022;277;42795;-37
2023/07/10 12:01:15;;;;;;;5.70;2.70;;;;;;;;;;108032;269;42176;-47
2023/07/10 12:03:50;;;;;;;4.80;2.40;;;;;;;;;;108134;276;39097;-37
2023/07/10 12:06:26;;;;;;;4.10;2.00;;;;;;;;;;108048;276;40827;-39
2023/07/10 12:09:04;;;;;;;4.50;2.10;;;;;;;;;;108031;276;44137;-37
2023/07/10 12:11:42;;;;;;;3.80;1.80;;;;;;;;;;108079;273;41830;-40
2023/07/10 12:14:18;;;;;;;3.70;1.80;;;;;;;;;;108055;276;38776;-39
2023/07/10 12:16:56;;;;;;;4.00;2.00;;;;;;;;;;108011;276;39845;-41
2023/07/10 12:19:52;;;;;;;3.60;1.80;;;;;;;;;;107964;276;44041;-39
2023/07/10 12:22:39;;;;;;;3.60;1.90;;;;;;;;;;108063;273;41982;-41
2023/07/10 12:25:16;;;;;;;4.20;1.80;;;;;;;;;;108013;276;38759;-41
2023/07/10 12:27:50;;;;;;;3.90;1.60;;;;;;;;;;108098;276;39650;-42
2023/07/10 12:30:28;;;;;;;4.20;1.60;;;;;;;;;;107837;269;176443;-43
2023/07/10 12:33:04;;;;;;;3.80;1.70;;;;;;;;;;108073;269;42338;-43
2023/07/10 12:35:41;;;;;;;3.50;1.60;;;;;;;;;;108069;277;38886;-43
2023/07/10 12:38:15;;;;;;;4.10;1.70;;;;;;;;;;108074;276;40716;-41
2023/07/10 12:40:49;;;;;;;3.30;1.60;;;;;;;;;;107979;273;48583;-36
2023/07/10 12:43:29;;;;;;;3.30;1.60;;;;;;;;;;108026;274;42039;-41
2023/07/10 12:46:10;;;;;;;3.80;1.60;;;;;;;;;;108038;273;40190;-41
2023/07/10 12:48:47;;;;;;;3.80;1.60;;;;;;;;;;108043;277;39550;-40
2023/07/10 12:51:29;;;;;;;3.60;1.60;;;;;;;;;;108045;270;50032;-42
2023/07/10 12:54:04;;;;;;;4.30;1.90;;;;;;;;;;108095;274;42121;-39
2023/07/10 12:56:41;;;;;;;3.40;1.60;;;;;;;;;;108098;277;38676;-40
2023/07/10 12:59:26;;;;;;;3.10;1.60;;;;;;;;;;108029;274;40760;-41
2023/07/10 13:02:16;;;;;;;3.80;1.50;;;;;;;;;;107993;270;42934;-39
2023/07/10 13:04:56;;;;;;;3.20;1.50;;;;;;;;;;108086;273;42192;-39
2023/07/10 13:07:38;;;;;;;3.70;1.40;;;;;;;;;;108066;269;38742;-39
2023/07/10 13:10:27;;;;;;;3.50;1.80;;;;;;;;;;107893;276;175254;-40
2023/07/10 13:13:03;;;;;;;3.60;1.60;;;;;;;;;;108023;269;44119;-40
2023/07/10 13:15:41;;;;;;;3.60;1.80;;;;;;;;;;108033;272;41861;-39
2023/07/10 13:18:24;;;;;;;3.30;1.60;;;;;;;;;;107989;270;40013;-41
2023/07/10 13:20:57;;;;;;;3.80;1.70;;;;;;;;;;107322;276;892337;-38
2023/07/10 13:23:30;;;;;;;3.80;1.60;;;;;;;;;;108073;274;42854;-38
2023/07/10 13:26:18;;;;;;;3.60;1.70;;;;;;;;;;108008;276;42098;-38
2023/07/10 13:28:55;;;;;;;3.30;1.50;;;;;;;;;;108139;272;38762;-39
2023/07/10 13:31:32;;;;;;;3.50;1.60;;;;;;;;;;108033;277;39706;-38
2023/07/10 13:34:08;;;;;;;3.70;1.50;;;;;;;;;;108088;270;42797;-38
2023/07/10 13:36:42;;;;;;;3.00;1.40;;;;;;;;;;108118;276;42221;-39
2023/07/10 13:39:18;;;;;;;3.50;1.70;;;;;;;;;;108064;270;38833;-38
2023/07/10 13:41:55;;;;;;;3.50;1.80;;;;;;;;;;108050;274;39689;-38
2023/07/10 13:44:30;;;;;;;3.30;1.60;;;;;;;;;;108078;276;42957;-38
2023/07/10 13:47:06;;;;;;;3.10;1.60;;;;;;;;;;108045;276;43248;-37
2023/07/10 13:49:39;;;;;;;4.00;1.60;;;;;;;;;;108132;269;38709;-39
2023/07/10 13:52:19;;;;;;;3.10;1.60;;;;;;;;;;107876;276;175268;-38
2023/07/10 13:54:55;;;;;;;2.90;1.50;;;;;;;;;;107966;279;43973;-38
2023/07/10 13:57:31;;;;;;;3.70;1.70;;;;;;;;;;108068;278;43202;-38
2023/07/10 14:00:06;;;;;;;3.30;1.60;;;;;;;;;;108075;278;38759;-38
2023/07/10 14:02:46;;;;;;;3.40;1.80;;;;;;;;;;108155;269;45495;-41
2023/07/10 14:05:23;;;;;;;3.20;1.60;;;;;;;;;;108037;276;42946;-38
2023/07/10 14:07:56;;;;;;;3.30;1.50;;;;;;;;;;108089;276;42476;-39
2023/07/10 14:10:32;;;;;;;2.80;1.40;;;;;;;;;;108044;276;38753;-38
2023/07/10 14:13:11;;;;;;;3.20;1.70;;;;;;;;;;108055;276;45835;-37
2023/07/10 14:15:46;;;;;;;3.50;1.40;;;;;;;;;;108066;269;43851;-38
2023/07/10 14:18:33;;;;;;;3.20;1.50;;;;;;;;;;108072;273;42127;-37
2023/07/10 14:21:06;;;;;;;3.30;1.60;;;;;;;;;;108043;270;38564;-37
2023/07/10 14:23:44;;;;;;;3.40;1.70;;;;;;;;;;108046;282;40831;-38
2023/07/10 14:26:27;;;;;;;3.40;1.60;;;;;;;;;;108051;274;42882;-39
2023/07/10 14:29:07;;;;;;;3.10;1.50;;;;;;;;;;108042;269;43226;-39
2023/07/10 14:31:40;;;;;;;3.10;1.50;;;;;;;;;;107945;274;38985;-39
2023/07/10 14:34:16;;;;;;;3.50;1.70;;;;;;;;;;108023;276;39741;-37
2023/07/10 14:36:50;;;;;;;3.30;1.70;;;;;;;;;;107890;276;174683;-37
2023/07/10 14:39:24;;;;;;;3.70;1.60;;;;;;;;;;108054;269;42121;-38
2023/07/10 14:41:58;;;;;;;3.80;1.70;;;;;;;;;;107831;274;174913;-37
2023/07/10 14:44:31;;;;;;;3.30;1.60;;;;;;;;;;108027;276;39644;-38
2023/07/10 14:47:06;;;;;;;4.20;1.80;;;;;;;;;;107993;278;43069;-39
2023/07/10 14:49:41;;;;;;;3.50;1.60;;;;;;;;;;107998;269;41994;-39
2023/07/10 14:52:20;;;;;;;4.90;2.00;;;;;;;;;;107962;273;38724;-38
2023/07/10 14:54:56;;;;;;;2.90;1.50;;;;;;;;;;108081;270;39780;-38
2023/07/10 14:57:33;;;;;;;3.10;1.70;;;;;;;;;;107924;273;195627;-39
2023/07/10 15:00:18;;;;;;;3.80;1.50;;;;;;;;;;108062;276;42197;-38
2023/07/10 15:02:52;;;;;;;3.40;1.50;;;;;;;;;;108008;277;38738;-38
2023/07/10 15:05:27;;;;;;;3.30;1.60;;;;;;;;;;107982;276;175206;-38
2023/07/10 15:08:02;;;;;;;3.50;1.70;;;;;;;;;;107931;269;175205;-38
2023/07/10 15:10:36;;;;;;;3.20;1.50;;;;;;;;;;108032;269;43141;-39
2023/07/10 15:13:20;;;;;;;3.60;1.80;;;;;;;;;;108044;276;38940;-41
2023/07/10 15:15:54;;;;;;;4.10;1.70;;;;;;;;;;108062;276;39554;-40
2023/07/10 15:18:28;;;;;;;3.80;1.60;;;;;;;;;;107402;273;891529;-38
2023/07/10 15:21:02;;;;;;;4.00;1.80;;;;;;;;;;108076;276;43514;-37
2023/07/10 15:23:36;;;;;;;4.10;1.60;;;;;;;;;;107834;278;175245;-38
2023/07/10 15:26:15;;;;;;;3.90;1.70;;;;;;;;;;108008;273;40884;-40
2023/07/10 15:28:50;;;;;;;4.00;1.80;;;;;;;;;;108058;270;42979;-38
2023/07/10 15:31:26;;;;;;;3.50;1.50;;;;;;;;;;108081;277;41848;-40
2023/07/10 15:34:01;;;;;;;5.00;1.40;;;;;;;;;;107943;274;38489;-37
2023/07/10 15:36:36;;;;;;;3.30;1.40;;;;;;;;;;107982;269;39647;-40
2023/07/10 15:39:16;;;;;;;3.30;1.50;;;;;;;;;;108059;276;42587;-38
2023/07/10 15:41:51;;;;;;;4.00;1.40;;;;;;;;;;108100;277;42116;-41
2023/07/10 15:44:25;;;;;;;3.70;1.50;;;;;;;;;;107981;274;39932;-40
2023/07/10 15:46:59;;;;;;;4.50;1.60;;;;;;;;;;108009;269;39735;-40
2023/07/10 15:49:35;;;;;;;4.30;1.60;;;;;;;;;;108112;276;42852;-39